Time;durP1;ratioP1;P1;durP2;ratioP2;P2;SDS_P1;SDS_P2;PMS_P1;PMS_P2;Temp;Humidity;BMP_temperature;BMP_pressure;BME280_temperature;BME280_humidity;BME280_pressure;Samples;Min_cycle;Max_cycle;Signal;HPM_P1;HPM_P2
2023/04/04 00:00:47;;;;;;;2.97;1.33;;;;;;;;;;5017336;28;20291;-81
2023/04/04 00:03:13;;;;;;;5.73;2.03;;;;;;;;;;5004390;28;20273;-80
2023/04/04 00:05:39;;;;;;;3.77;1.63;;;;;;;;;;5002148;28;20285;-80
2023/04/04 00:08:05;;;;;;;4.83;2.07;;;;;;;;;;4996226;28;20310;-81
2023/04/04 00:10:31;;;;;;;4.90;1.83;;;;;;;;;;5006103;28;20359;-81
2023/04/04 00:13:01;;;;;;;4.47;1.60;;;;;;;;;;4996513;28;20274;-80
2023/04/04 00:15:28;;;;;;;4.50;1.60;;;;;;;;;;5012283;28;20285;-81
2023/04/04 00:17:54;;;;;;;3.80;1.40;;;;;;;;;;4991164;28;20708;-80
2023/04/04 00:20:20;;;;;;;5.03;1.67;;;;;;;;;;4998129;28;20367;-81
2023/04/04 00:22:46;;;;;;;4.00;1.73;;;;;;;;;;5010202;28;20309;-80
2023/04/04 00:25:12;;;;;;;3.87;1.97;;;;;;;;;;5003392;28;20304;-80
2023/04/04 00:27:38;;;;;;;6.47;1.80;;;;;;;;;;5001374;28;20269;-78
2023/04/04 00:30:05;;;;;;;5.07;1.63;;;;;;;;;;4999302;28;20291;-80
2023/04/04 00:32:31;;;;;;;6.60;1.80;;;;;;;;;;4996134;28;20342;-80
2023/04/04 00:34:57;;;;;;;3.40;1.60;;;;;;;;;;4999998;28;20280;-80
2023/04/04 00:37:23;;;;;;;5.40;1.63;;;;;;;;;;4998761;28;20336;-80
2023/04/04 00:39:49;;;;;;;4.80;1.97;;;;;;;;;;4997800;28;20311;-80
2023/04/04 00:42:15;;;;;;;5.07;1.70;;;;;;;;;;5002167;28;20281;-81
2023/04/04 00:44:41;;;;;;;6.80;2.20;;;;;;;;;;4998838;28;20025;-79
2023/04/04 00:47:07;;;;;;;5.63;1.77;;;;;;;;;;4998039;28;20281;-81
2023/04/04 00:49:33;;;;;;;6.33;1.63;;;;;;;;;;5003024;28;20280;-81
2023/04/04 00:51:59;;;;;;;3.57;1.50;;;;;;;;;;5000593;28;20276;-80
2023/04/04 00:54:25;;;;;;;5.83;1.73;;;;;;;;;;4991928;28;20298;-80
2023/04/04 00:56:54;;;;;;;4.83;2.17;;;;;;;;;;5000356;28;20280;-80
2023/04/04 00:59:21;;;;;;;2.70;1.70;;;;;;;;;;4995414;28;20307;-79
2023/04/04 01:01:47;;;;;;;5.23;1.50;;;;;;;;;;4997322;28;20361;-80
2023/04/04 01:04:14;;;;;;;4.70;1.60;;;;;;;;;;4996147;28;20289;-80
2023/04/04 01:06:40;;;;;;;5.60;1.97;;;;;;;;;;4993887;28;20277;-80
2023/04/04 01:09:06;;;;;;;5.00;1.80;;;;;;;;;;4999202;28;20265;-80
2023/04/04 01:11:32;;;;;;;4.87;1.60;;;;;;;;;;5000775;28;20347;-81
2023/04/04 01:13:58;;;;;;;3.83;2.20;;;;;;;;;;4995878;28;20301;-80
2023/04/04 01:16:25;;;;;;;9.20;2.20;;;;;;;;;;4999564;28;20277;-80
2023/04/04 01:18:51;;;;;;;6.10;2.03;;;;;;;;;;4999071;28;20034;-80
2023/04/04 01:21:20;;;;;;;7.90;2.23;;;;;;;;;;5010508;28;20335;-81
2023/04/04 01:23:46;;;;;;;3.73;1.87;;;;;;;;;;5010979;28;20277;-80
2023/04/04 01:26:12;;;;;;;5.73;2.40;;;;;;;;;;4999450;28;20307;-81
2023/04/04 01:28:38;;;;;;;4.90;2.20;;;;;;;;;;4999881;28;20277;-81
2023/04/04 01:31:06;;;;;;;3.37;2.10;;;;;;;;;;4999988;28;20275;-80
2023/04/04 01:33:36;;;;;;;6.60;2.13;;;;;;;;;;4996824;28;20296;-81
2023/04/04 01:36:41;;;;;;;4.87;2.33;;;;;;;;;;5013875;28;20295;-79
2023/04/04 01:39:13;;;;;;;5.27;2.10;;;;;;;;;;4937070;29;20287;-78
2023/04/04 01:41:39;;;;;;;4.63;1.90;;;;;;;;;;4938056;29;20275;-81
2023/04/04 01:44:05;;;;;;;5.53;2.23;;;;;;;;;;4938573;29;20174;-80
2023/04/04 01:46:32;;;;;;;4.23;2.10;;;;;;;;;;4935271;29;20346;-80
2023/04/04 01:48:58;;;;;;;3.70;1.70;;;;;;;;;;4936227;29;20267;-80
2023/04/04 01:51:24;;;;;;;6.10;2.00;;;;;;;;;;4940153;29;20303;-80
2023/04/04 01:53:50;;;;;;;4.60;1.90;;;;;;;;;;4939920;28;20331;-81
2023/04/04 01:56:16;;;;;;;4.03;2.00;;;;;;;;;;4933464;29;20283;-80
2023/04/04 01:58:42;;;;;;;6.03;2.33;;;;;;;;;;4937398;29;20371;-79
2023/04/04 02:01:08;;;;;;;5.90;2.27;;;;;;;;;;4935691;29;20302;-80
2023/04/04 02:03:34;;;;;;;5.17;2.13;;;;;;;;;;4937478;29;20282;-80
2023/04/04 02:06:01;;;;;;;4.00;1.97;;;;;;;;;;4933641;29;20291;-80
2023/04/04 02:08:27;;;;;;;4.97;2.27;;;;;;;;;;4932326;29;20373;-80
2023/04/04 02:10:53;;;;;;;6.70;2.13;;;;;;;;;;4990692;28;20304;-80
2023/04/04 02:13:19;;;;;;;8.07;2.20;;;;;;;;;;5009126;28;20288;-80
2023/04/04 02:15:45;;;;;;;5.47;2.13;;;;;;;;;;4998041;28;20299;-80
2023/04/04 02:18:11;;;;;;;4.53;1.90;;;;;;;;;;5011832;28;20289;-80
2023/04/04 02:20:37;;;;;;;3.20;1.53;;;;;;;;;;4999083;28;20281;-80
2023/04/04 02:23:04;;;;;;;6.67;2.33;;;;;;;;;;5001148;28;20293;-80
2023/04/04 02:25:30;;;;;;;5.07;2.10;;;;;;;;;;4994038;28;20030;-80
2023/04/04 02:27:56;;;;;;;5.07;2.33;;;;;;;;;;4993177;28;20311;-80
2023/04/04 02:30:22;;;;;;;6.97;1.83;;;;;;;;;;4991757;28;20281;-80
2023/04/04 02:32:49;;;;;;;6.90;3.40;;;;;;;;;;5010380;28;20281;-80
2023/04/04 02:35:18;;;;;;;6.30;1.80;;;;;;;;;;4997252;28;20289;-80
2023/04/04 02:37:46;;;;;;;5.10;2.30;;;;;;;;;;4997601;28;20284;-80
2023/04/04 02:40:12;;;;;;;8.77;2.10;;;;;;;;;;4997221;28;20292;-80
2023/04/04 02:42:41;;;;;;;5.93;2.03;;;;;;;;;;5000196;28;20317;-80
2023/04/04 02:45:08;;;;;;;4.67;2.13;;;;;;;;;;5012190;28;20296;-80
2023/04/04 02:47:34;;;;;;;3.60;2.00;;;;;;;;;;4994814;28;20343;-80
2023/04/04 02:50:00;;;;;;;6.00;2.23;;;;;;;;;;4994730;28;20281;-80
2023/04/04 02:52:26;;;;;;;4.00;2.03;;;;;;;;;;4996148;28;20283;-81
2023/04/04 02:54:52;;;;;;;5.47;1.93;;;;;;;;;;4997578;28;20281;-80
2023/04/04 02:57:18;;;;;;;4.37;1.83;;;;;;;;;;4993134;28;20840;-80
2023/04/04 02:59:44;;;;;;;4.60;2.03;;;;;;;;;;4997338;28;20379;-81
2023/04/04 03:02:10;;;;;;;8.47;1.83;;;;;;;;;;4999204;28;20285;-80
2023/04/04 03:04:36;;;;;;;4.30;2.07;;;;;;;;;;4998331;28;20289;-80
2023/04/04 03:07:02;;;;;;;4.23;1.87;;;;;;;;;;4993153;28;20273;-80
2023/04/04 03:09:28;;;;;;;6.47;1.83;;;;;;;;;;4998805;28;20269;-80
2023/04/04 03:11:55;;;;;;;6.27;1.90;;;;;;;;;;5002707;28;20289;-81
2023/04/04 03:14:21;;;;;;;5.17;2.00;;;;;;;;;;5000904;28;20323;-81
2023/04/04 03:16:51;;;;;;;7.53;3.03;;;;;;;;;;5002942;28;20276;-81
2023/04/04 03:19:17;;;;;;;4.93;1.67;;;;;;;;;;4998506;28;20291;-81
2023/04/04 03:21:43;;;;;;;4.00;1.80;;;;;;;;;;4995841;28;20273;-79
2023/04/04 03:24:09;;;;;;;4.90;2.07;;;;;;;;;;5003475;28;20283;-80
2023/04/04 03:26:35;;;;;;;7.33;1.77;;;;;;;;;;5000968;28;21226;-80
2023/04/04 03:29:03;;;;;;;4.57;2.27;;;;;;;;;;5002361;28;20285;-81
2023/04/04 03:31:29;;;;;;;7.13;2.13;;;;;;;;;;4995160;28;20305;-81
2023/04/04 03:33:55;;;;;;;7.13;2.20;;;;;;;;;;5003929;28;20280;-80
2023/04/04 03:36:21;;;;;;;4.17;1.97;;;;;;;;;;4998522;28;20286;-80
2023/04/04 03:38:48;;;;;;;5.60;2.00;;;;;;;;;;5000162;28;20284;-81
2023/04/04 03:41:14;;;;;;;5.87;2.27;;;;;;;;;;4997263;28;20364;-81
2023/04/04 03:43:40;;;;;;;6.00;2.00;;;;;;;;;;5003212;28;20280;-81
2023/04/04 03:46:06;;;;;;;5.90;2.03;;;;;;;;;;4997197;28;21302;-81
2023/04/04 03:48:32;;;;;;;5.67;2.93;;;;;;;;;;4997037;28;20273;-80
2023/04/04 03:50:58;;;;;;;4.40;2.33;;;;;;;;;;5005180;28;20276;-80
2023/04/04 03:53:28;;;;;;;3.70;1.80;;;;;;;;;;5004416;28;20299;-79
2023/04/04 03:55:55;;;;;;;7.30;2.10;;;;;;;;;;4998767;28;20284;-81
2023/04/04 03:58:21;;;;;;;7.20;2.47;;;;;;;;;;5003714;28;20284;-81
2023/04/04 04:00:48;;;;;;;4.43;2.03;;;;;;;;;;4997350;28;20277;-80
2023/04/04 04:03:14;;;;;;;6.20;3.80;;;;;;;;;;5004954;28;20289;-80
2023/04/04 04:05:40;;;;;;;6.77;2.10;;;;;;;;;;4996968;28;20292;-81
2023/04/04 04:08:06;;;;;;;13.80;3.80;;;;;;;;;;5005224;28;20300;-81
2023/04/04 04:10:33;;;;;;;3.80;1.90;;;;;;;;;;5006228;28;20288;-79
2023/04/04 04:13:00;;;;;;;6.83;2.50;;;;;;;;;;5000031;28;20352;-80
2023/04/04 04:15:26;;;;;;;4.10;2.07;;;;;;;;;;5000496;28;20288;-80
2023/04/04 04:17:52;;;;;;;6.53;2.07;;;;;;;;;;5002563;28;20285;-80
2023/04/04 04:20:18;;;;;;;9.70;2.43;;;;;;;;;;5005318;28;20829;-81
2023/04/04 04:22:47;;;;;;;4.70;2.00;;;;;;;;;;5000051;28;20295;-79
2023/04/04 04:25:14;;;;;;;5.83;2.00;;;;;;;;;;5016527;28;20297;-80
2023/04/04 04:27:40;;;;;;;8.03;2.67;;;;;;;;;;4997047;28;20288;-81
2023/04/04 04:30:06;;;;;;;6.63;2.50;;;;;;;;;;5005118;28;20365;-80
2023/04/04 04:32:33;;;;;;;4.93;2.20;;;;;;;;;;5005348;28;20512;-81
2023/04/04 04:34:59;;;;;;;4.13;2.60;;;;;;;;;;5005390;28;20273;-81
2023/04/04 04:37:25;;;;;;;6.73;2.70;;;;;;;;;;4995322;28;20911;-81
2023/04/04 04:39:54;;;;;;;7.20;2.33;;;;;;;;;;5015757;28;20194;-80
2023/04/04 04:42:20;;;;;;;8.93;2.40;;;;;;;;;;5001686;28;20281;-79
2023/04/04 04:44:46;;;;;;;4.47;2.37;;;;;;;;;;4998421;28;20301;-80
2023/04/04 04:47:12;;;;;;;4.30;2.47;;;;;;;;;;5002879;28;20311;-79
2023/04/04 04:49:38;;;;;;;4.43;2.10;;;;;;;;;;4996045;28;20308;-80
2023/04/04 04:52:04;;;;;;;5.80;2.50;;;;;;;;;;5003525;28;20272;-80
2023/04/04 04:54:30;;;;;;;6.37;2.83;;;;;;;;;;5001267;28;20269;-79
2023/04/04 04:56:57;;;;;;;5.07;2.73;;;;;;;;;;5012361;28;20287;-80
2023/04/04 04:59:23;;;;;;;7.93;2.77;;;;;;;;;;5001380;28;20280;-79
2023/04/04 05:01:49;;;;;;;5.63;2.43;;;;;;;;;;5000698;28;20277;-79
2023/04/04 05:04:16;;;;;;;5.97;2.27;;;;;;;;;;4995463;28;20281;-80
2023/04/04 05:06:42;;;;;;;6.60;3.03;;;;;;;;;;4992563;28;20285;-78
2023/04/04 05:09:08;;;;;;;7.20;2.77;;;;;;;;;;4994954;28;20277;-79
2023/04/04 05:11:34;;;;;;;12.23;2.73;;;;;;;;;;4998595;28;20304;-80
2023/04/04 05:14:00;;;;;;;9.10;2.50;;;;;;;;;;4995678;28;20289;-80
2023/04/04 05:16:26;;;;;;;9.87;2.87;;;;;;;;;;4996603;28;20334;-80
2023/04/04 05:18:52;;;;;;;9.20;2.87;;;;;;;;;;5000784;28;20312;-79
2023/04/04 05:21:19;;;;;;;6.67;3.00;;;;;;;;;;4995709;28;20368;-80
2023/04/04 05:23:47;;;;;;;6.37;2.90;;;;;;;;;;4999878;28;20277;-80
2023/04/04 05:26:13;;;;;;;8.27;2.80;;;;;;;;;;4993109;28;20293;-81
2023/04/04 05:28:40;;;;;;;5.60;2.40;;;;;;;;;;4992987;28;20311;-80
2023/04/04 05:31:06;;;;;;;10.60;3.00;;;;;;;;;;4993131;28;20289;-80
2023/04/04 05:33:32;;;;;;;7.00;2.60;;;;;;;;;;4995223;28;20280;-79
2023/04/04 05:36:01;;;;;;;5.70;2.50;;;;;;;;;;4997264;28;20289;-80
2023/04/04 05:38:28;;;;;;;6.93;3.30;;;;;;;;;;5013790;28;20308;-80
2023/04/04 05:40:54;;;;;;;6.57;2.60;;;;;;;;;;4997898;28;20343;-79
2023/04/04 05:43:20;;;;;;;6.60;2.90;;;;;;;;;;4999522;28;20309;-80
2023/04/04 05:45:46;;;;;;;10.00;3.20;;;;;;;;;;4993453;28;20407;-80
2023/04/04 05:48:15;;;;;;;11.53;2.97;;;;;;;;;;4999385;28;21793;-80
2023/04/04 05:50:44;;;;;;;12.03;3.13;;;;;;;;;;4995401;28;20323;-80
2023/04/04 05:53:10;;;;;;;8.53;2.97;;;;;;;;;;4993202;28;20689;-80
2023/04/04 05:55:36;;;;;;;9.13;3.30;;;;;;;;;;5000603;28;20269;-80
2023/04/04 05:58:02;;;;;;;7.50;3.13;;;;;;;;;;4997244;28;20331;-80
2023/04/04 06:00:29;;;;;;;8.30;3.40;;;;;;;;;;4996982;28;20295;-80
2023/04/04 06:02:58;;;;;;;10.87;3.73;;;;;;;;;;5011161;28;20285;-80
2023/04/04 06:05:24;;;;;;;13.20;3.50;;;;;;;;;;4999223;28;20303;-79
2023/04/04 06:07:51;;;;;;;10.47;3.10;;;;;;;;;;5012020;28;20432;-80
2023/04/04 06:10:17;;;;;;;8.13;3.30;;;;;;;;;;4999327;28;20276;-79
2023/04/04 06:12:43;;;;;;;9.13;3.40;;;;;;;;;;4997276;28;20366;-81
2023/04/04 06:15:09;;;;;;;5.70;2.87;;;;;;;;;;4992568;28;20280;-80
2023/04/04 06:17:35;;;;;;;9.30;3.00;;;;;;;;;;4993117;28;20283;-80
2023/04/04 06:20:01;;;;;;;8.37;4.50;;;;;;;;;;4998338;28;20276;-78
2023/04/04 06:22:27;;;;;;;11.53;5.83;;;;;;;;;;4998942;28;20342;-80
2023/04/04 06:24:53;;;;;;;14.37;5.70;;;;;;;;;;4998620;28;20280;-81
2023/04/04 06:27:19;;;;;;;16.97;6.23;;;;;;;;;;5001896;28;20344;-80
2023/04/04 06:29:46;;;;;;;11.07;5.03;;;;;;;;;;4999350;28;20275;-81
2023/04/04 06:32:12;;;;;;;10.33;3.97;;;;;;;;;;4997418;28;20296;-80
2023/04/04 06:34:38;;;;;;;10.33;4.83;;;;;;;;;;5003547;28;20288;-81
2023/04/04 06:37:05;;;;;;;9.87;4.03;;;;;;;;;;5002399;28;20296;-80
2023/04/04 06:39:33;;;;;;;7.10;3.03;;;;;;;;;;5000968;28;20269;-79
2023/04/04 06:41:59;;;;;;;9.60;3.37;;;;;;;;;;5009859;28;20307;-79
2023/04/04 06:44:26;;;;;;;6.93;3.63;;;;;;;;;;5000384;28;20272;-80
2023/04/04 06:46:52;;;;;;;6.20;3.33;;;;;;;;;;5006927;28;20374;-80
2023/04/04 06:49:18;;;;;;;6.87;3.40;;;;;;;;;;5025243;28;20281;-79
2023/04/04 06:51:45;;;;;;;8.30;3.90;;;;;;;;;;5022169;28;20284;-80
2023/04/04 06:54:11;;;;;;;8.77;4.10;;;;;;;;;;5023273;28;20294;-79
2023/04/04 06:56:37;;;;;;;7.57;3.40;;;;;;;;;;5010084;28;20280;-80
2023/04/04 06:59:03;;;;;;;4.67;1.80;;;;;;;;;;5013452;28;20332;-81
2023/04/04 07:01:32;;;;;;;6.40;2.10;;;;;;;;;;5006004;28;20349;-80
2023/04/04 07:03:58;;;;;;;3.37;1.70;;;;;;;;;;5024047;28;20270;-80
2023/04/04 07:06:25;;;;;;;5.17;2.63;;;;;;;;;;5024011;28;20289;-79
2023/04/04 07:08:51;;;;;;;3.73;2.10;;;;;;;;;;5001017;28;20341;-78
2023/04/04 07:11:17;;;;;;;4.57;2.43;;;;;;;;;;5006117;28;20753;-79
2023/04/04 07:13:43;;;;;;;8.60;1.90;;;;;;;;;;5010119;28;20793;-80
2023/04/04 07:16:10;;;;;;;6.97;2.20;;;;;;;;;;5002947;28;20961;-82
2023/04/04 07:18:36;;;;;;;4.07;1.83;;;;;;;;;;5010028;28;20458;-80
2023/04/04 07:21:03;;;;;;;5.50;2.37;;;;;;;;;;5007168;28;20280;-80
2023/04/04 07:23:29;;;;;;;11.57;2.00;;;;;;;;;;5003948;28;20288;-80
2023/04/04 07:25:55;;;;;;;7.53;2.47;;;;;;;;;;5015977;28;20665;-79
2023/04/04 07:28:21;;;;;;;14.80;2.40;;;;;;;;;;5007463;28;20269;-80
2023/04/04 07:30:48;;;;;;;6.63;3.13;;;;;;;;;;5018483;28;20344;-76
2023/04/04 07:33:14;;;;;;;14.67;6.47;;;;;;;;;;5011490;28;20307;-78
2023/04/04 07:35:40;;;;;;;8.03;2.17;;;;;;;;;;5003839;28;20332;-78
2023/04/04 07:38:06;;;;;;;6.93;1.80;;;;;;;;;;5010096;28;20277;-78
2023/04/04 07:40:32;;;;;;;4.17;1.37;;;;;;;;;;5001668;28;20269;-82
2023/04/04 07:43:01;;;;;;;8.73;1.90;;;;;;;;;;4998722;28;20283;-80
2023/04/04 07:45:27;;;;;;;5.53;2.30;;;;;;;;;;5020784;28;20755;-79
2023/04/04 07:47:56;;;;;;;5.93;2.20;;;;;;;;;;5017112;28;20305;-77
2023/04/04 07:50:22;;;;;;;5.87;2.23;;;;;;;;;;5026563;28;20295;-78
2023/04/04 07:52:54;;;;;;;2.87;1.67;;;;;;;;;;5029188;28;20272;-77
2023/04/04 07:55:30;;;;;;;3.70;1.80;;;;;;;;;;5027721;28;20319;-79
2023/04/04 07:57:57;;;;;;;6.03;2.30;;;;;;;;;;5026149;28;20285;-78
2023/04/04 08:00:25;;;;;;;6.50;2.10;;;;;;;;;;5008774;28;20285;-78
2023/04/04 08:02:57;;;;;;;9.13;2.57;;;;;;;;;;5013407;28;20283;-77
2023/04/04 08:05:24;;;;;;;4.93;1.95;;;;;;;;;;5012800;28;20281;-80
2023/04/04 08:07:50;;;;;;;14.30;2.23;;;;;;;;;;5003230;28;20022;-80
2023/04/04 08:10:17;;;;;;;3.63;1.77;;;;;;;;;;5006844;28;20345;-79
2023/04/04 08:12:44;;;;;;;6.50;2.40;;;;;;;;;;5022904;28;20265;-78
2023/04/04 08:15:13;;;;;;;5.03;1.90;;;;;;;;;;5009045;28;20299;-79
2023/04/04 08:17:41;;;;;;;5.60;1.83;;;;;;;;;;5026323;28;20276;-77
2023/04/04 08:20:08;;;;;;;3.43;1.60;;;;;;;;;;5007928;28;20400;-79
2023/04/04 08:22:34;;;;;;;5.83;1.90;;;;;;;;;;5002865;28;20328;-78
2023/04/04 08:25:01;;;;;;;4.97;1.93;;;;;;;;;;5003080;28;20371;-80
2023/04/04 08:27:27;;;;;;;6.07;1.90;;;;;;;;;;5021048;28;20308;-79
2023/04/04 08:29:53;;;;;;;4.43;2.30;;;;;;;;;;5024434;28;20289;-75
2023/04/04 08:32:19;;;;;;;6.73;3.17;;;;;;;;;;5007826;28;20280;-75
2023/04/04 08:34:45;;;;;;;4.40;1.60;;;;;;;;;;5006305;28;21111;-80
2023/04/04 08:37:11;;;;;;;10.87;2.33;;;;;;;;;;5019049;28;20034;-79
2023/04/04 08:39:37;;;;;;;6.10;2.20;;;;;;;;;;4998165;28;20320;-79
2023/04/04 08:42:04;;;;;;;3.97;1.93;;;;;;;;;;5002607;28;20281;-80
2023/04/04 08:44:32;;;;;;;5.73;2.10;;;;;;;;;;5021849;28;20296;-77
2023/04/04 08:47:04;;;;;;;5.03;2.50;;;;;;;;;;5016284;28;20348;-79
2023/04/04 08:49:31;;;;;;;5.83;2.20;;;;;;;;;;5009287;28;20297;-77
2023/04/04 08:52:01;;;;;;;3.80;2.23;;;;;;;;;;5027894;28;20329;-77
2023/04/04 08:54:28;;;;;;;5.90;2.17;;;;;;;;;;5026146;28;20269;-78
2023/04/04 08:56:57;;;;;;;6.03;2.13;;;;;;;;;;5025189;28;20268;-77
2023/04/04 08:59:23;;;;;;;4.50;1.77;;;;;;;;;;5022358;28;20304;-78
2023/04/04 09:01:51;;;;;;;5.37;2.63;;;;;;;;;;5007034;28;20014;-79
2023/04/04 09:04:18;;;;;;;4.53;1.80;;;;;;;;;;5008890;28;20293;-79
2023/04/04 09:06:47;;;;;;;4.80;2.53;;;;;;;;;;5024870;28;20296;-80
2023/04/04 09:09:14;;;;;;;2.67;1.60;;;;;;;;;;5017368;28;20289;-78
2023/04/04 09:11:45;;;;;;;3.50;2.17;;;;;;;;;;5013612;28;20277;-78
2023/04/04 09:14:14;;;;;;;7.03;2.33;;;;;;;;;;5023788;28;20292;-77
2023/04/04 09:16:40;;;;;;;7.10;2.73;;;;;;;;;;5013095;28;20280;-77
2023/04/04 09:19:06;;;;;;;3.90;2.30;;;;;;;;;;5012183;28;20340;-79
2023/04/04 09:21:33;;;;;;;6.47;2.33;;;;;;;;;;5014489;28;20292;-78
2023/04/04 09:24:05;;;;;;;3.90;2.20;;;;;;;;;;5013947;28;20274;-79
2023/04/04 09:26:46;;;;;;;3.73;1.77;;;;;;;;;;5014456;28;20300;-78
2023/04/04 09:29:17;;;;;;;4.53;1.90;;;;;;;;;;5014190;28;20280;-78
2023/04/04 09:31:48;;;;;;;3.87;2.03;;;;;;;;;;5010410;28;20292;-78
2023/04/04 09:34:14;;;;;;;6.20;2.37;;;;;;;;;;5026058;28;20068;-77
2023/04/04 09:36:41;;;;;;;5.30;2.30;;;;;;;;;;5012712;28;20273;-78
2023/04/04 09:39:10;;;;;;;6.83;2.30;;;;;;;;;;5010906;28;20336;-79
2023/04/04 09:41:41;;;;;;;4.17;2.10;;;;;;;;;;5013964;28;20276;-78
2023/04/04 09:44:11;;;;;;;5.53;2.53;;;;;;;;;;5024486;28;20421;-78
2023/04/04 09:46:40;;;;;;;6.13;2.13;;;;;;;;;;5009801;28;20030;-78
2023/04/04 09:49:10;;;;;;;7.27;2.47;;;;;;;;;;5005402;28;20046;-78
2023/04/04 09:51:40;;;;;;;6.20;1.87;;;;;;;;;;5006367;28;20026;-78
2023/04/04 09:54:09;;;;;;;3.80;2.23;;;;;;;;;;5026883;28;20022;-79
2023/04/04 09:56:38;;;;;;;7.60;2.77;;;;;;;;;;5013773;28;20069;-78
2023/04/04 09:59:14;;;;;;;5.63;2.53;;;;;;;;;;5027046;28;20273;-78
2023/04/04 10:01:42;;;;;;;5.43;2.20;;;;;;;;;;5027301;28;20108;-78
2023/04/04 10:04:11;;;;;;;4.40;2.37;;;;;;;;;;5006952;28;20030;-78
2023/04/04 10:06:39;;;;;;;4.50;2.17;;;;;;;;;;5026877;28;20017;-78
2023/04/04 10:09:07;;;;;;;4.63;2.50;;;;;;;;;;5026133;28;20018;-78
2023/04/04 10:11:35;;;;;;;4.97;2.57;;;;;;;;;;5013354;28;20049;-78
2023/04/04 10:14:04;;;;;;;6.60;2.50;;;;;;;;;;5013048;28;20032;-78
2023/04/04 10:16:35;;;;;;;9.77;2.70;;;;;;;;;;5005590;28;20020;-78
2023/04/04 10:19:03;;;;;;;3.83;2.33;;;;;;;;;;5025955;28;20033;-77
2023/04/04 10:21:30;;;;;;;6.03;2.40;;;;;;;;;;5013457;28;20018;-78
2023/04/04 10:23:59;;;;;;;5.13;2.40;;;;;;;;;;5024567;28;20018;-78
2023/04/04 10:26:26;;;;;;;5.67;2.00;;;;;;;;;;5006814;28;20045;-78
2023/04/04 10:28:52;;;;;;;6.60;2.13;;;;;;;;;;5012789;28;20037;-78
2023/04/04 10:31:27;;;;;;;3.90;1.93;;;;;;;;;;5014014;28;20774;-77
2023/04/04 10:34:18;;;;;;;4.43;2.00;;;;;;;;;;5009150;28;20050;-78
2023/04/04 10:36:45;;;;;;;5.70;2.20;;;;;;;;;;5027436;28;20049;-78
2023/04/04 10:39:18;;;;;;;6.53;2.30;;;;;;;;;;5016542;28;20018;-77
2023/04/04 10:41:45;;;;;;;6.87;2.80;;;;;;;;;;5013238;28;20022;-78
2023/04/04 10:44:18;;;;;;;3.53;2.30;;;;;;;;;;5024578;28;20026;-78
2023/04/04 10:46:46;;;;;;;4.35;2.67;;;;;;;;;;5025102;28;20040;-78
2023/04/04 10:49:12;;;;;;;6.03;2.80;;;;;;;;;;5013206;28;20110;-77
2023/04/04 10:51:39;;;;;;;4.13;2.50;;;;;;;;;;5012637;28;20030;-79
2023/04/04 10:54:05;;;;;;;4.00;2.27;;;;;;;;;;5010140;28;20030;-78
2023/04/04 10:56:38;;;;;;;3.30;2.60;;;;;;;;;;5012870;28;20015;-77
2023/04/04 10:59:16;;;;;;;4.67;2.60;;;;;;;;;;5007721;28;20041;-79
2023/04/04 11:01:56;;;;;;;3.37;1.80;;;;;;;;;;5026643;28;20134;-76
2023/04/04 11:04:30;;;;;;;7.23;2.67;;;;;;;;;;5012525;28;20093;-78
2023/04/04 11:07:15;;;;;;;4.17;2.60;;;;;;;;;;5025019;28;20030;-78
2023/04/04 11:09:58;;;;;;;4.37;2.37;;;;;;;;;;5008588;28;20014;-78
2023/04/04 11:12:37;;;;;;;5.37;2.50;;;;;;;;;;5025505;28;20022;-78
2023/04/04 11:15:03;;;;;;;6.57;2.40;;;;;;;;;;5025894;28;20043;-78
2023/04/04 11:17:58;;;;;;;5.20;2.37;;;;;;;;;;5013122;28;20087;-77
2023/04/04 11:20:24;;;;;;;6.40;2.53;;;;;;;;;;4991680;28;20057;-77
2023/04/04 11:23:02;;;;;;;5.53;2.57;;;;;;;;;;5027114;28;20050;-77
2023/04/04 11:25:31;;;;;;;5.20;2.43;;;;;;;;;;5016215;28;20061;-78
2023/04/04 11:28:01;;;;;;;5.13;2.10;;;;;;;;;;5014174;28;20022;-78
2023/04/04 11:30:29;;;;;;;6.20;2.63;;;;;;;;;;5013681;28;20033;-78
2023/04/04 11:33:02;;;;;;;3.77;2.20;;;;;;;;;;5016826;28;20034;-78
2023/04/04 11:35:28;;;;;;;4.30;2.42;;;;;;;;;;5010066;28;20069;-78
2023/04/04 11:38:01;;;;;;;4.83;2.63;;;;;;;;;;5008552;28;20034;-77
2023/04/04 11:40:40;;;;;;;5.33;2.00;;;;;;;;;;5016418;28;20021;-77
2023/04/04 11:43:12;;;;;;;3.77;2.13;;;;;;;;;;5021345;28;20014;-78
2023/04/04 11:45:45;;;;;;;5.15;2.58;;;;;;;;;;5009840;28;20057;-78
2023/04/04 11:48:15;;;;;;;3.53;2.33;;;;;;;;;;5031012;28;20036;-77
2023/04/04 11:50:42;;;;;;;5.30;2.70;;;;;;;;;;5008962;28;20042;-78
2023/04/04 11:53:12;;;;;;;4.17;2.53;;;;;;;;;;5016718;28;20040;-77
2023/04/04 11:55:40;;;;;;;5.57;2.93;;;;;;;;;;5012637;28;20010;-77
2023/04/04 11:58:08;;;;;;;4.83;2.00;;;;;;;;;;5013728;28;20026;-78
2023/04/04 12:00:38;;;;;;;5.17;2.17;;;;;;;;;;5011565;28;20073;-78
2023/04/04 12:03:17;;;;;;;4.63;2.20;;;;;;;;;;5012710;28;20045;-80
2023/04/04 12:05:44;;;;;;;4.17;2.17;;;;;;;;;;5014093;28;20030;-78
2023/04/04 12:08:14;;;;;;;5.47;2.50;;;;;;;;;;5029339;28;20029;-79
2023/04/04 12:10:43;;;;;;;6.77;3.03;;;;;;;;;;5015763;28;20032;-79
2023/04/04 12:13:12;;;;;;;4.73;2.10;;;;;;;;;;5030531;28;20010;-79
2023/04/04 12:15:45;;;;;;;4.10;2.63;;;;;;;;;;5013791;28;20029;-79
2023/04/04 12:18:20;;;;;;;11.73;2.77;;;;;;;;;;5030807;28;20026;-78
2023/04/04 12:20:53;;;;;;;9.53;5.00;;;;;;;;;;5016790;28;20014;-78
2023/04/04 12:23:19;;;;;;;4.75;2.28;;;;;;;;;;5017055;28;20056;-78
2023/04/04 12:25:48;;;;;;;7.03;2.20;;;;;;;;;;5030390;28;20069;-78
2023/04/04 12:28:14;;;;;;;6.53;3.30;;;;;;;;;;5014585;28;20156;-78
2023/04/04 12:30:46;;;;;;;5.43;2.20;;;;;;;;;;5029640;28;20018;-79
2023/04/04 12:33:12;;;;;;;3.70;2.23;;;;;;;;;;5032725;28;20057;-78
2023/04/04 12:35:38;;;;;;;5.13;2.27;;;;;;;;;;5015798;28;20076;-78
2023/04/04 12:38:09;;;;;;;3.63;2.60;;;;;;;;;;5030206;28;20053;-79
2023/04/04 12:40:37;;;;;;;6.53;2.00;;;;;;;;;;5017971;28;20014;-78
2023/04/04 12:43:04;;;;;;;3.83;1.97;;;;;;;;;;5010324;28;20057;-78
2023/04/04 12:45:30;;;;;;;5.00;2.40;;;;;;;;;;5015811;28;20117;-79
2023/04/04 12:48:01;;;;;;;3.60;2.10;;;;;;;;;;5014598;28;20018;-78
2023/04/04 12:50:27;;;;;;;4.57;2.43;;;;;;;;;;5018298;28;20017;-78
2023/04/04 12:52:54;;;;;;;3.47;2.10;;;;;;;;;;5020259;28;20006;-77
2023/04/04 12:55:24;;;;;;;3.80;2.30;;;;;;;;;;5014201;28;20113;-78
2023/04/04 12:57:51;;;;;;;4.23;2.40;;;;;;;;;;5029880;28;20021;-78
2023/04/04 13:00:20;;;;;;;5.97;2.40;;;;;;;;;;5014611;28;20133;-79
2023/04/04 13:02:48;;;;;;;3.07;1.63;;;;;;;;;;5021254;28;20022;-78
2023/04/04 13:05:16;;;;;;;4.27;2.03;;;;;;;;;;5010987;28;20068;-78
2023/04/04 13:07:42;;;;;;;5.33;2.00;;;;;;;;;;5012340;28;20026;-78
2023/04/04 13:10:09;;;;;;;6.40;2.40;;;;;;;;;;5012647;28;20025;-79
2023/04/04 13:12:58;;;;;;;7.70;2.20;;;;;;;;;;5030649;28;20010;-78
2023/04/04 13:15:44;;;;;;;3.83;1.70;;;;;;;;;;5031951;28;20034;-78
2023/04/04 13:18:20;;;;;;;4.77;2.03;;;;;;;;;;4999342;28;20041;-78
2023/04/04 13:20:55;;;;;;;4.97;2.17;;;;;;;;;;5030864;28;20042;-78
2023/04/04 13:23:21;;;;;;;3.07;2.03;;;;;;;;;;5030364;28;20022;-77
2023/04/04 13:25:50;;;;;;;13.30;2.37;;;;;;;;;;5014619;28;20040;-78
2023/04/04 13:28:24;;;;;;;6.23;2.97;;;;;;;;;;5014762;28;20049;-77
2023/04/04 13:30:52;;;;;;;5.47;1.97;;;;;;;;;;5028885;28;20025;-78
2023/04/04 13:33:18;;;;;;;5.67;2.10;;;;;;;;;;5016449;28;20018;-77
2023/04/04 13:35:45;;;;;;;6.47;2.37;;;;;;;;;;5027034;28;20041;-78
2023/04/04 13:38:11;;;;;;;2.63;1.63;;;;;;;;;;5014878;28;20093;-78
2023/04/04 13:40:40;;;;;;;6.00;1.87;;;;;;;;;;5014367;28;20030;-81
2023/04/04 13:43:06;;;;;;;5.87;2.23;;;;;;;;;;5029713;28;20014;-78
2023/04/04 13:45:32;;;;;;;6.37;2.20;;;;;;;;;;5010123;28;20037;-78
2023/04/04 13:47:59;;;;;;;3.80;1.90;;;;;;;;;;5028027;28;20023;-77
2023/04/04 13:50:27;;;;;;;6.13;1.93;;;;;;;;;;5013825;28;20045;-79
2023/04/04 13:52:55;;;;;;;6.97;2.10;;;;;;;;;;5016279;28;20026;-79
2023/04/04 13:55:21;;;;;;;3.83;2.30;;;;;;;;;;5029681;28;20022;-78
2023/04/04 13:57:48;;;;;;;6.70;2.33;;;;;;;;;;5014619;28;20028;-78
2023/04/04 14:00:14;;;;;;;9.20;2.40;;;;;;;;;;5028236;28;20030;-78
2023/04/04 14:02:45;;;;;;;3.90;1.77;;;;;;;;;;5014307;28;20037;-78
2023/04/04 14:05:11;;;;;;;3.53;1.90;;;;;;;;;;5009758;28;20054;-78
2023/04/04 14:07:38;;;;;;;4.03;1.90;;;;;;;;;;5015718;28;20023;-79
2023/04/04 14:10:06;;;;;;;3.60;2.20;;;;;;;;;;5020578;28;20028;-78
2023/04/04 14:12:33;;;;;;;7.33;2.20;;;;;;;;;;5018635;28;20093;-78
2023/04/04 14:15:01;;;;;;;4.53;2.33;;;;;;;;;;5012855;28;20014;-78
2023/04/04 14:17:29;;;;;;;4.90;1.80;;;;;;;;;;5025847;28;20114;-78
2023/04/04 14:19:55;;;;;;;8.80;2.10;;;;;;;;;;5012792;28;20033;-78
2023/04/04 14:22:21;;;;;;;8.73;2.57;;;;;;;;;;5030500;28;20042;-78
2023/04/04 14:24:47;;;;;;;5.43;2.53;;;;;;;;;;5013394;28;20051;-78
2023/04/04 14:27:14;;;;;;;6.57;2.57;;;;;;;;;;5013745;28;20026;-78
2023/04/04 14:29:40;;;;;;;3.90;1.70;;;;;;;;;;5014476;28;20042;-78
2023/04/04 14:32:06;;;;;;;4.03;1.80;;;;;;;;;;5013376;28;20037;-79
2023/04/04 14:34:32;;;;;;;3.37;2.00;;;;;;;;;;5029118;28;20022;-78
2023/04/04 14:36:58;;;;;;;3.77;1.90;;;;;;;;;;5015461;28;20116;-77
2023/04/04 14:39:24;;;;;;;3.43;1.70;;;;;;;;;;5017075;28;20018;-78
2023/04/04 14:41:55;;;;;;;8.17;2.10;;;;;;;;;;5029557;28;20018;-78
2023/04/04 14:44:21;;;;;;;4.93;1.90;;;;;;;;;;5028692;28;20010;-78
2023/04/04 14:46:47;;;;;;;5.27;2.00;;;;;;;;;;5028288;28;20030;-78